ADDS METAR Data INFO
IDs: Format: Raw Decoded Include TAF

Data at: 0144 UTC 18 Oct 2017

K1P1 180135Z AUTO 00000KT 10SM CLR 01/01 A3018 RMK AO2 T00120005
K1P1 180115Z AUTO 00000KT 10SM CLR 02/01 A3017 RMK AO2 T00150006
K1P1 180055Z AUTO 00000KT 10SM CLR 02/01 A3017 RMK AO2 T00200011
K1P1 180035Z AUTO 00000KT 10SM CLR 02/01 A3016 RMK AO2 T00230014
K1P1 180015Z AUTO 00000KT 10SM CLR 03/01 A3017 RMK AO2 T00250011
K1P1 172355Z AUTO 00000KT 10SM CLR 04/02 A3016 RMK AO2 T00350020 10139 20034
K1P1 172335Z AUTO 00000KT 10SM CLR 04/02 A3016 RMK AO2 T00360018
K1P1 172315Z AUTO 00000KT 10SM CLR 05/02 A3016 RMK AO2 T00450024
K1P1 172255Z AUTO 00000KT 10SM CLR 05/02 A3015 RMK AO2 T00490022
K1P1 172235Z AUTO 00000KT 10SM CLR 06/02 A3015 RMK AO2 T00610023
K1P1 172215Z AUTO 00000KT 10SM CLR 07/03 A3014 RMK AO2 T00680025
K1P1 172155Z AUTO 00000KT 10SM CLR 08/03 A3014 RMK AO2 T00790025
K1P1 172135Z AUTO 00000KT 10SM CLR 10/02 A3014 RMK AO2 T00980015
K1P1 172115Z AUTO 00000KT 10SM CLR 13/M01 A3014 RMK AO2 T01271013
K1P1 172055Z AUTO 00000KT 10SM CLR 14/M02 A3014 RMK AO2 T01361025
K1P1 172035Z AUTO 00000KT 10SM CLR 14/M02 A3014 RMK AO2 T01381023
K1P1 172015Z AUTO 00000KT 10SM CLR 14/M03 A3015 RMK AO2 T01371029
K1P1 171955Z AUTO 24003KT 10SM CLR 14/M03 A3016 RMK AO2 T01351028
K1P1 171935Z AUTO 26004KT 10SM CLR 14/M03 A3016 RMK AO2 T01371028
K1P1 171915Z AUTO 22004KT 10SM CLR 14/M03 A3016 RMK AO2 T01371026
K1P1 171855Z AUTO 30005KT 10SM CLR 14/M03 A3017 RMK AO2 T01351028
K1P1 171835Z AUTO 30007KT 10SM CLR 13/M03 A3017 RMK AO2 T01321034
K1P1 171815Z AUTO 28005KT 10SM CLR 13/M03 A3017 RMK AO2 T01301031
K1P1 171755Z AUTO 00000KT 10SM CLR 13/M03 A3018 RMK AO2 T01261034 10126 20022
K1P1 171735Z AUTO 30004KT 10SM CLR 12/M03 A3020 RMK AO2 T01221030
K1P1 171715Z AUTO 00000KT 10SM CLR 12/M03 A3021 RMK AO2 T01181029
K1P1 171655Z AUTO 31004KT 10SM CLR 11/M03 A3022 RMK AO2 T01131030
K1P1 171635Z AUTO 26006KT 10SM CLR 11/M04 A3024 RMK AO2 T01051038
K1P1 171615Z AUTO 26007KT 10SM CLR 11/M04 A3025 RMK AO2 T01081037
K1P1 171555Z AUTO 27006KT 10SM CLR 10/M03 A3025 RMK AO2 T01011027
K1P1 171535Z AUTO 27006KT 10SM CLR 10/M02 A3025 RMK AO2 T00951024
K1P1 171515Z AUTO 29005KT 10SM CLR 09/M02 A3026 RMK AO2 T00901024
K1P1 171455Z AUTO 28005KT 10SM CLR 09/M02 A3026 RMK AO2 T00851022
K1P1 171435Z AUTO 28007KT 10SM CLR 08/M02 A3027 RMK AO2 T00751021
K1P1 171415Z AUTO 29006KT 10SM CLR 07/M02 A3027 RMK AO2 T00701022
K1P1 171355Z AUTO 30006KT 10SM CLR 07/M02 A3028 RMK AO2 T00651017
K1P1 171335Z AUTO 30005KT 10SM CLR 06/M02 A3028 RMK AO2 T00591020
K1P1 171315Z AUTO 28006KT 10SM CLR 05/M01 A3028 RMK AO2 T00521015
K1P1 171255Z AUTO 30007KT 10SM CLR 05/M01 A3028 RMK AO2 T00451007
K1P1 171235Z AUTO 30004KT 10SM CLR 04/00 A3028 RMK AO2 T00371001
K1P1 171215Z AUTO 29006KT 10SM CLR 03/00 A3028 RMK AO2 T00300000
K1P1 171155Z AUTO 29004KT 10SM CLR 02/00 A3028 RMK AO2 T00211001 10041 20005
K1P1 171135Z AUTO 28003KT 10SM CLR 01/00 A3027 RMK AO2 T00131003
K1P1 171115Z AUTO 29003KT 10SM CLR 01/00 A3027 RMK AO2 T00071004
K1P1 171055Z AUTO 29004KT 10SM CLR 01/00 A3026 RMK AO2 T00071005
K1P1 171035Z AUTO 29004KT 10SM CLR 01/00 A3026 RMK AO2 T00111005
K1P1 171015Z AUTO 28004KT 10SM CLR 02/00 A3025 RMK AO2 T00151005
K1P1 170955Z AUTO 29004KT 10SM CLR 02/00 A3025 RMK AO2 T00161004
K1P1 170935Z AUTO 30006KT 10SM CLR 02/00 A3024 RMK AO2 T00201002
K1P1 170915Z AUTO 30007KT 10SM CLR 02/00 A3024 RMK AO2 T00230000
K1P1 170855Z AUTO 30005KT 10SM CLR 02/00 A3023 RMK AO2 T00230000
K1P1 170835Z AUTO 30006KT 10SM CLR 03/00 A3022 RMK AO2 T00270000
K1P1 170815Z AUTO 30005KT 10SM CLR 02/00 A3021 RMK AO2 T00230000
K1P1 170755Z AUTO 27004KT 10SM CLR 03/00 A3020 RMK AO2 T00260000
K1P1 170735Z AUTO 27004KT 10SM CLR 03/00 A3020 RMK AO2 T00320000
K1P1 170715Z AUTO 28004KT 10SM CLR 03/00 A3019 RMK AO2 T00340000
K1P1 170655Z AUTO 28004KT 10SM CLR 04/00 A3019 RMK AO2 T00360000
K1P1 170635Z AUTO 29003KT 10SM SCT031 SCT041 04/00 A3019 RMK AO2 T00400003
K1P1 170615Z AUTO 29004KT 10SM SCT043 04/00 A3018 RMK AO2 T00410003
K1P1 170555Z AUTO 29003KT 10SM SCT034 SCT046 04/01 A3017 RMK AO2 T00420005 10057 20035
K1P1 170535Z AUTO 29004KT 10SM SCT032 04/01 A3017 RMK AO2 T00390005
K1P1 170515Z AUTO 28004KT 10SM CLR 04/00 A3017 RMK AO2 T00370004
K1P1 170455Z AUTO 28003KT 10SM CLR 04/01 A3016 RMK AO2 T00350005
K1P1 170435Z AUTO 29003KT 10SM CLR 04/01 A3016 RMK AO2 T00370005
K1P1 170415Z AUTO 30004KT 10SM CLR 04/00 A3016 RMK AO2 T00400002
K1P1 170355Z AUTO 28003KT 10SM SCT055 04/00 A3015 RMK AO2 T00400002 401770037
K1P1 170335Z AUTO 29003KT 10SM CLR 04/00 A3016 RMK AO2 T00370001
K1P1 170315Z AUTO 30005KT 10SM SCT060 04/00 A3015 RMK AO2 T00400000
K1P1 170255Z AUTO 30004KT 10SM OVC060 04/00 A3015 RMK AO2 T00420001
K1P1 170235Z AUTO 29003KT 10SM BKN060 05/00 A3015 RMK AO2 T00450000
K1P1 170215Z AUTO 29004KT 10SM SCT060 04/00 A3015 RMK AO2 T00400000
K1P1 170155Z AUTO 29003KT 10SM SCT060 04/00 A3015 RMK AO2 T00401001
K1P1 170135Z AUTO 29005KT 10SM SCT060 04/00 A3014 RMK AO2 T00441002
K1P1 170115Z AUTO 29005KT 10SM CLR 05/00 A3013 RMK AO2 T00451003
K1P1 170055Z AUTO 30006KT 10SM CLR 05/00 A3013 RMK AO2 T00481003
K1P1 170035Z AUTO 30006KT 10SM CLR 05/00 A3012 RMK AO2 T00501003
K1P1 170015Z AUTO 30005KT 10SM CLR 05/00 A3011 RMK AO2 T00531003
K1P1 162355Z AUTO 32006KT 10SM SCT038 SCT043 SCT050 06/00 A3011 RMK AO2 T00581005 10094 20058
K1P1 162335Z AUTO 32008G16KT 10SM SCT035 BKN042 BKN050 06/M01 A3011 RMK AO2 T00641008
K1P1 162315Z AUTO 32009G19KT 10SM OVC032 07/00 A3011 RMK AO2 T00650000
K1P1 162255Z AUTO 32010G21KT 300V360 10SM OVC032 07/00 A3011 RMK AO2 T00650001
K1P1 162235Z AUTO 32012G17KT 10SM OVC032 07/00 A3010 RMK AO2 T00660001
K1P1 162215Z AUTO 33010G15KT 10SM OVC036 07/00 A3009 RMK AO2 T00660002
K1P1 162155Z AUTO 33006G14KT 300V360 10SM OVC034 07/00 A3008 RMK AO2 T00710002
K1P1 162135Z AUTO 32012G17KT 10SM OVC034 07/00 A3007 RMK AO2 T00730002
K1P1 162115Z AUTO 33009KT 10SM OVC036 08/00 A3005 RMK AO2 T00770002
K1P1 162055Z AUTO 33009KT 10SM OVC036 08/00 A3004 RMK AO2 T00800003
K1P1 162035Z AUTO 31008G15KT 10SM BKN036 08/00 A3004 RMK AO2 T00810003
K1P1 162015Z AUTO 31011G19KT 10SM OVC034 08/01 A3003 RMK AO2 T00820005
K1P1 161955Z AUTO 30010G18KT 10SM BKN034 BKN041 09/01 A3002 RMK AO2 T00850006
K1P1 161935Z AUTO 30009G18KT 280V340 10SM BKN034 BKN042 09/01 A3002 RMK AO2 T00850007
K1P1 161915Z AUTO 29009G14KT 10SM BKN034 BKN044 09/01 A3001 RMK AO2 T00900010
K1P1 161855Z AUTO 32004KT 10SM BKN034 09/01 A3000 RMK AO2 T00900011
K1P1 161835Z AUTO 30009G15KT 10SM OVC034 09/01 A3000 RMK AO2 T00890014
K1P1 161815Z AUTO 31009G18KT 10SM OVC036 09/01 A3000 RMK AO2 T00930012
K1P1 161755Z AUTO 32010G14KT 7SM SCT033 BKN040 09/02 A3000 RMK AO2 T00940017 10106 20083
K1P1 161735Z AUTO 29012KT 7SM CLR 09/02 A3000 RMK AO2 T00940016
K1P1 161715Z AUTO 30011G17KT 10SM SCT027 SCT037 10/03 A2999 RMK AO2 T01040025
K1P1 161655Z AUTO 29010G18KT 10SM CLR 09/03 A2999 RMK AO2 T00940026
K1P1 161635Z AUTO 29010G18KT 7SM SCT028 SCT036 10/03 A2999 RMK AO2 T01030030
K1P1 161615Z AUTO 31011G17KT 10SM SCT028 BKN038 10/03 A2999 RMK AO2 T01010027
K1P1 161555Z AUTO 31010G19KT 10SM BKN028 BKN038 10/02 A2999 RMK AO2 T00960024
K1P1 161535Z AUTO 32009G16KT 10SM BKN028 OVC036 09/03 A2998 RMK AO2 T00910028
K1P1 161515Z AUTO 30009KT 10SM SCT026 BKN036 09/03 A2998 RMK AO2 T00870028
K1P1 161455Z AUTO 30009G16KT 280V340 10SM BKN026 BKN034 08/03 A2997 RMK AO2 T00830029
K1P1 161435Z AUTO 29011G15KT 10SM BKN028 BKN034 09/03 A2996 RMK AO2 T00850027
K1P1 161415Z AUTO 29008KT 10SM OVC028 08/03 A2995 RMK AO2 T00830030
K1P1 161355Z AUTO 30009G16KT 10SM OVC028 09/03 A2994 RMK AO2 T00850030